Time;durP1;ratioP1;P1;durP2;ratioP2;P2;SDS_P1;SDS_P2;PMS_P1;PMS_P2;Temp;Humidity;BMP_temperature;BMP_pressure;BME280_temperature;BME280_humidity;BME280_pressure;Samples;Min_cycle;Max_cycle;Signal;HPM_P1;HPM_P2
2022/09/12 00:00:49;;;;;;;;;;;12.50;99.90;;;;;;5050254;28;19928;-80
2022/09/12 00:03:15;;;;;;;;;;;12.40;99.90;;;;;;5046935;28;19913;-80
2022/09/12 00:05:42;;;;;;;;;;;12.50;99.90;;;;;;5041905;28;19924;-80
2022/09/12 00:08:07;;;;;;;;;;;12.50;99.90;;;;;;5047077;28;19944;-80
2022/09/12 00:10:36;;;;;;;;;;;12.50;99.90;;;;;;5046771;28;19921;-80
2022/09/12 00:13:01;;;;;;;;;;;12.50;99.90;;;;;;5050655;28;19935;-80
2022/09/12 00:15:27;;;;;;;;;;;12.60;99.90;;;;;;5050884;28;20388;-79
2022/09/12 00:17:53;;;;;;;;;;;12.60;99.90;;;;;;5055042;28;20016;-80
2022/09/12 00:20:18;;;;;;;;;;;12.60;99.90;;;;;;5054187;28;20435;-80
2022/09/12 00:22:44;;;;;;;;;;;12.60;99.90;;;;;;5046028;28;19918;-79
2022/09/12 00:25:10;;;;;;;;;;;12.60;99.90;;;;;;5044476;28;19917;-80
2022/09/12 00:27:35;;;;;;;;;;;12.70;99.90;;;;;;5033471;28;20007;-80
2022/09/12 00:30:01;;;;;;;;;;;12.70;99.90;;;;;;5057558;28;20419;-81
2022/09/12 00:32:26;;;;;;;;;;;12.60;99.90;;;;;;5046933;28;19924;-80
2022/09/12 00:34:52;;;;;;;;;;;12.60;99.90;;;;;;5045253;28;19916;-80
2022/09/12 00:37:17;;;;;;;;;;;12.60;99.90;;;;;;5054078;28;20000;-80
2022/09/12 00:39:43;;;;;;;;;;;12.60;99.90;;;;;;5055067;28;20074;-80
2022/09/12 00:42:10;;;;;;;;;;;12.60;99.90;;;;;;5053128;28;20561;-80
2022/09/12 00:44:35;;;;;;;;;;;12.70;99.90;;;;;;5055249;28;19913;-80
2022/09/12 00:47:04;;;;;;;;;;;12.70;99.90;;;;;;5054227;28;20395;-80
2022/09/12 00:49:36;;;;;;;;;;;12.70;99.90;;;;;;5035463;28;19920;-80
2022/09/12 00:52:06;;;;;;;;;;;12.70;99.90;;;;;;5053870;28;19913;-80
2022/09/12 00:54:37;;;;;;;;;;;12.60;99.90;;;;;;5038309;28;19921;-80
2022/09/12 00:57:05;;;;;;;;;;;12.60;99.90;;;;;;5048347;28;19974;-80
2022/09/12 00:59:33;;;;;;;;;;;12.60;99.90;;;;;;5049970;28;19925;-81
2022/09/12 01:01:59;;;;;;;;;;;12.60;99.90;;;;;;5051675;28;20391;-80
2022/09/12 01:04:25;;;;;;;;;;;12.60;99.90;;;;;;5037966;28;19917;-80
2022/09/12 01:06:50;;;;;;;;;;;12.60;99.90;;;;;;5035127;28;19948;-80
2022/09/12 01:09:17;;;;;;;;;;;12.60;99.90;;;;;;5039417;28;19936;-80
2022/09/12 01:11:45;;;;;;;;;;;12.60;99.90;;;;;;5046172;28;19917;-80
2022/09/12 01:14:11;;;;;;;;;;;12.60;99.90;;;;;;5053314;28;19928;-80
2022/09/12 01:16:37;;;;;;;;;;;12.60;99.90;;;;;;5050277;28;20457;-80
2022/09/12 01:19:21;;;;;;;;;;;12.60;99.90;;;;;;5053473;28;19928;-80
2022/09/12 01:21:53;;;;;;;;;;;12.60;99.90;;;;;;5052264;28;19967;-80
2022/09/12 01:24:33;;;;;;;;;;;12.60;99.90;;;;;;5045592;28;20495;-80
2022/09/12 01:27:17;;;;;;;;;;;12.60;99.90;;;;;;5043141;28;19913;-80
2022/09/12 01:30:03;;;;;;;;;;;12.60;99.90;;;;;;5052953;28;19919;-80
2022/09/12 01:32:38;;;;;;;;;;;12.60;99.90;;;;;;5034947;28;19943;-80
2022/09/12 01:35:21;;;;;;;;;;;12.60;99.90;;;;;;5051780;28;20421;-80
2022/09/12 01:37:57;;;;;;;;;;;12.60;99.90;;;;;;5036267;28;19968;-80
2022/09/12 01:40:45;;;;;;;;;;;12.50;99.90;;;;;;5038494;28;20548;-80
2022/09/12 01:43:21;;;;;;;;;;;12.60;99.90;;;;;;5051488;28;19924;-80
2022/09/12 01:46:08;;;;;;;;;;;12.50;99.90;;;;;;5050738;28;19936;-80
2022/09/12 01:48:40;;;;;;;;;;;12.60;99.90;;;;;;5040335;28;19920;-80
2022/09/12 01:51:12;;;;;;;;;;;12.60;99.90;;;;;;5041012;28;20395;-80
2022/09/12 01:53:43;;;;;;;;;;;12.60;99.90;;;;;;5052514;28;20415;-80
2022/09/12 01:56:12;;;;;;;;;;;12.60;99.90;;;;;;5052079;28;19982;-79
2022/09/12 01:58:43;;;;;;;;;;;12.50;99.90;;;;;;5048198;28;20332;-80
2022/09/12 02:01:15;;;;;;;;;;;12.50;99.90;;;;;;5051412;28;19913;-80
2022/09/12 02:03:47;;;;;;;;;;;12.40;99.90;;;;;;5049839;28;19929;-80
2022/09/12 02:06:25;;;;;;;;;;;12.30;99.90;;;;;;5050618;28;19955;-80
2022/09/12 02:08:56;;;;;;;;;;;12.30;99.90;;;;;;5032344;28;19949;-80
2022/09/12 02:11:21;;;;;;;;;;;12.30;99.90;;;;;;5041139;28;19912;-80
2022/09/12 02:13:50;;;;;;;;;;;12.20;99.90;;;;;;5047634;28;19920;-79
2022/09/12 02:16:31;;;;;;;;;;;12.20;99.90;;;;;;5051307;28;19912;-80
2022/09/12 02:18:58;;;;;;;;;;;12.20;99.90;;;;;;5048291;28;19923;-80
2022/09/12 02:21:25;;;;;;;;;;;12.20;99.90;;;;;;5051928;28;19912;-80
2022/09/12 02:23:55;;;;;;;;;;;12.20;99.90;;;;;;5051570;28;20023;-80
2022/09/12 02:26:34;;;;;;;;;;;12.20;99.90;;;;;;5048800;28;19921;-79
2022/09/12 02:28:59;;;;;;;;;;;12.20;99.90;;;;;;5051438;28;19913;-80
2022/09/12 02:31:28;;;;;;;;;;;12.30;99.90;;;;;;5050425;28;19919;-80
2022/09/12 02:34:06;;;;;;;;;;;12.20;99.90;;;;;;5051361;28;19919;-80
2022/09/12 02:36:35;;;;;;;;;;;12.30;99.90;;;;;;5042452;28;20001;-79
2022/09/12 02:39:00;;;;;;;;;;;12.30;99.90;;;;;;5050930;28;19920;-79
2022/09/12 02:41:26;;;;;;;;;;;12.30;99.90;;;;;;5050865;28;19940;-80
2022/09/12 02:43:52;;;;;;;;;;;12.20;99.90;;;;;;5049554;28;19983;-80
2022/09/12 02:46:25;;;;;;;;;;;12.10;99.90;;;;;;5028654;28;19920;-80
2022/09/12 02:48:51;;;;;;;;;;;12.20;99.90;;;;;;5037934;28;20284;-80
2022/09/12 02:51:16;;;;;;;;;;;12.10;99.90;;;;;;5036383;28;19933;-80
2022/09/12 02:53:42;;;;;;;;;;;12.20;99.90;;;;;;5044598;28;19913;-80
2022/09/12 02:56:11;;;;;;;;;;;12.30;99.90;;;;;;5042646;28;19960;-80
2022/09/12 02:58:36;;;;;;;;;;;12.20;99.90;;;;;;5050458;28;19965;-80
2022/09/12 03:01:10;;;;;;;;;;;12.10;99.90;;;;;;5049015;28;19970;-80
2022/09/12 03:03:35;;;;;;;;;;;12.10;99.90;;;;;;5049111;28;19920;-80
2022/09/12 03:06:05;;;;;;;;;;;12.10;99.90;;;;;;5049604;28;19909;-80
2022/09/12 03:08:33;;;;;;;;;;;12.10;99.90;;;;;;5032140;28;19920;-80
2022/09/12 03:11:18;;;;;;;;;;;12.10;99.90;;;;;;5037049;28;19995;-79
2022/09/12 03:13:56;;;;;;;;;;;12.00;99.90;;;;;;5041284;28;19919;-79
2022/09/12 03:16:21;;;;;;;;;;;12.00;99.90;;;;;;5048100;28;19923;-80
2022/09/12 03:18:59;;;;;;;;;;;12.00;99.90;;;;;;5049682;28;19917;-80
2022/09/12 03:21:32;;;;;;;;;;;11.90;99.90;;;;;;5046338;28;19936;-79
2022/09/12 03:24:16;;;;;;;;;;;12.00;99.90;;;;;;5038771;28;20015;-79
2022/09/12 03:26:45;;;;;;;;;;;12.00;99.90;;;;;;5043894;28;19913;-79
2022/09/12 03:29:11;;;;;;;;;;;12.00;99.90;;;;;;5049445;28;19916;-79
2022/09/12 03:31:46;;;;;;;;;;;11.90;99.90;;;;;;5048844;28;20420;-80
2022/09/12 03:34:12;;;;;;;;;;;12.00;99.90;;;;;;5049502;28;20012;-80
2022/09/12 03:36:38;;;;;;;;;;;11.90;99.90;;;;;;5031994;28;19956;-79
2022/09/12 03:39:04;;;;;;;;;;;11.90;99.90;;;;;;5049390;28;19921;-79
2022/09/12 03:41:29;;;;;;;;;;;11.80;99.90;;;;;;5031765;28;19923;-80
2022/09/12 03:43:55;;;;;;;;;;;11.80;99.90;;;;;;5031547;28;19917;-79
2022/09/12 03:46:21;;;;;;;;;;;11.90;99.90;;;;;;5048090;28;19943;-79
2022/09/12 03:48:47;;;;;;;;;;;11.90;99.90;;;;;;5042199;28;19921;-80
2022/09/12 03:51:12;;;;;;;;;;;11.90;99.90;;;;;;5054913;28;19912;-80
2022/09/12 03:53:38;;;;;;;;;;;11.90;99.90;;;;;;5052295;28;19917;-80
2022/09/12 03:56:08;;;;;;;;;;;12.00;99.90;;;;;;5053355;28;19947;-80
2022/09/12 03:58:35;;;;;;;;;;;11.90;99.90;;;;;;5035324;28;19917;-80
2022/09/12 04:01:11;;;;;;;;;;;12.00;99.90;;;;;;5046567;28;20412;-81
2022/09/12 04:03:41;;;;;;;;;;;12.00;99.90;;;;;;5050804;28;19917;-81
2022/09/12 04:06:07;;;;;;;;;;;12.10;99.90;;;;;;5041042;28;19913;-81
2022/09/12 04:08:33;;;;;;;;;;;12.10;99.90;;;;;;5050521;28;20003;-81
2022/09/12 04:11:25;;;;;;;;;;;12.10;99.90;;;;;;5054069;28;19912;-80
2022/09/12 04:13:51;;;;;;;;;;;12.10;99.90;;;;;;5053840;28;20410;-81
2022/09/12 04:16:16;;;;;;;;;;;12.10;99.90;;;;;;5052760;28;19917;-80
2022/09/12 04:18:42;;;;;;;;;;;12.00;99.90;;;;;;5046072;28;20316;-81
2022/09/12 04:21:10;;;;;;;;;;;12.10;99.90;;;;;;5015152;28;19922;-81
2022/09/12 04:23:36;;;;;;;;;;;12.10;99.90;;;;;;5039968;28;19924;-80
2022/09/12 04:26:02;;;;;;;;;;;12.10;99.90;;;;;;5041392;28;20293;-80
2022/09/12 04:28:27;;;;;;;;;;;12.10;99.90;;;;;;5050286;28;20413;-81
2022/09/12 04:30:53;;;;;;;;;;;12.00;99.90;;;;;;5052545;28;19924;-80
2022/09/12 04:33:19;;;;;;;;;;;12.10;99.90;;;;;;5032687;28;19922;-80
2022/09/12 04:35:45;;;;;;;;;;;12.10;99.90;;;;;;5044408;28;20389;-80
2022/09/12 04:38:11;;;;;;;;;;;12.10;99.90;;;;;;5050572;28;20054;-81
2022/09/12 04:40:39;;;;;;;;;;;12.00;99.90;;;;;;5041439;28;19921;-80
2022/09/12 04:43:05;;;;;;;;;;;12.10;99.90;;;;;;5053239;28;20393;-80
2022/09/12 04:45:31;;;;;;;;;;;12.00;99.90;;;;;;5052815;28;19964;-81
2022/09/12 04:47:57;;;;;;;;;;;12.10;99.90;;;;;;5052155;28;20391;-81
2022/09/12 04:50:23;;;;;;;;;;;12.10;99.90;;;;;;5053338;28;20007;-81
2022/09/12 04:52:52;;;;;;;;;;;12.10;99.90;;;;;;5035213;28;20031;-81
2022/09/12 04:55:18;;;;;;;;;;;12.10;99.90;;;;;;5051494;28;19956;-80
2022/09/12 04:57:44;;;;;;;;;;;12.00;99.90;;;;;;5050990;28;19928;-80
2022/09/12 05:00:13;;;;;;;;;;;11.90;99.90;;;;;;5031810;28;19967;-80
2022/09/12 05:02:39;;;;;;;;;;;11.90;99.90;;;;;;5051848;28;19924;-80
2022/09/12 05:05:05;;;;;;;;;;;11.80;99.90;;;;;;5044669;28;19921;-80
2022/09/12 05:07:31;;;;;;;;;;;11.90;99.90;;;;;;5050318;28;19994;-80
2022/09/12 05:09:57;;;;;;;;;;;11.90;99.90;;;;;;5043337;28;20003;-79
2022/09/12 05:12:23;;;;;;;;;;;12.00;99.90;;;;;;5030733;28;19917;-80
2022/09/12 05:14:48;;;;;;;;;;;12.00;99.90;;;;;;5042821;28;20285;-80
2022/09/12 05:17:14;;;;;;;;;;;12.10;99.90;;;;;;5052021;28;19912;-80
2022/09/12 05:19:40;;;;;;;;;;;12.10;99.90;;;;;;5041667;28;20546;-80
2022/09/12 05:22:06;;;;;;;;;;;12.10;99.90;;;;;;5051918;28;19930;-80
2022/09/12 05:24:31;;;;;;;;;;;12.10;99.90;;;;;;5037111;28;19928;-80
2022/09/12 05:26:57;;;;;;;;;;;12.10;99.90;;;;;;5046519;28;20004;-80
2022/09/12 05:29:24;;;;;;;;;;;12.10;99.90;;;;;;5051519;28;19995;-80
2022/09/12 05:31:51;;;;;;;;;;;12.20;99.90;;;;;;5051464;28;19909;-80
2022/09/12 05:34:17;;;;;;;;;;;12.20;99.90;;;;;;5055208;28;19919;-80
2022/09/12 05:36:42;;;;;;;;;;;12.20;99.90;;;;;;5054102;28;19976;-80
2022/09/12 05:39:08;;;;;;;;;;;12.20;99.90;;;;;;5047456;28;20011;-80
2022/09/12 05:41:33;;;;;;;;;;;12.30;99.90;;;;;;5057229;28;19924;-79
2022/09/12 05:44:01;;;;;;;;;;;12.20;99.90;;;;;;5054513;28;19912;-79
2022/09/12 05:46:27;;;;;;;;;;;12.10;99.90;;;;;;5047325;28;20332;-79
2022/09/12 05:48:54;;;;;;;;;;;12.10;99.90;;;;;;5060420;28;19913;-80
2022/09/12 05:51:25;;;;;;;;;;;12.00;99.90;;;;;;5050353;28;19966;-80
2022/09/12 05:53:55;;;;;;;;;;;12.00;99.90;;;;;;5038578;28;20011;-80
2022/09/12 05:56:22;;;;;;;;;;;12.00;99.90;;;;;;5059925;28;19928;-80
2022/09/12 05:58:52;;;;;;;;;;;12.10;99.90;;;;;;5059428;28;19917;-80
2022/09/12 06:01:18;;;;;;;;;;;12.10;99.90;;;;;;5054843;28;20400;-80
2022/09/12 06:03:45;;;;;;;;;;;12.20;99.90;;;;;;5033062;28;19916;-80
2022/09/12 06:06:14;;;;;;;;;;;12.20;99.90;;;;;;5049461;28;19926;-79
2022/09/12 06:08:44;;;;;;;;;;;12.20;99.90;;;;;;5053057;28;20588;-80
2022/09/12 06:11:13;;;;;;;;;;;12.10;99.90;;;;;;5053084;28;20307;-80
2022/09/12 06:13:39;;;;;;;;;;;11.90;99.90;;;;;;5040458;28;20032;-80
2022/09/12 06:16:07;;;;;;;;;;;11.90;99.90;;;;;;5041313;28;19971;-79
2022/09/12 06:18:33;;;;;;;;;;;11.90;99.90;;;;;;5022453;28;20590;-80
2022/09/12 06:21:02;;;;;;;;;;;12.00;99.90;;;;;;5049086;28;20284;-80
2022/09/12 06:23:28;;;;;;;;;;;12.10;99.90;;;;;;5051926;28;20385;-80
2022/09/12 06:25:54;;;;;;;;;;;12.20;99.90;;;;;;5050938;28;19983;-79
2022/09/12 06:28:19;;;;;;;;;;;12.20;99.90;;;;;;5045081;28;20844;-79
2022/09/12 06:30:45;;;;;;;;;;;12.30;99.90;;;;;;5048440;28;19924;-80
2022/09/12 06:33:11;;;;;;;;;;;12.30;99.90;;;;;;5049893;28;19917;-80
2022/09/12 06:35:37;;;;;;;;;;;12.40;99.90;;;;;;5050661;28;20019;-80
2022/09/12 06:38:03;;;;;;;;;;;12.40;99.90;;;;;;5044900;28;19935;-79
2022/09/12 06:40:29;;;;;;;;;;;12.40;99.90;;;;;;5051970;28;19929;-79
2022/09/12 06:42:55;;;;;;;;;;;12.50;99.90;;;;;;5050492;28;19978;-79
2022/09/12 06:45:31;;;;;;;;;;;12.50;99.90;;;;;;5029796;28;19988;-80
2022/09/12 06:47:57;;;;;;;;;;;12.60;99.90;;;;;;5044913;28;19925;-80
2022/09/12 06:50:22;;;;;;;;;;;12.50;99.90;;;;;;5050810;28;19959;-80
2022/09/12 06:52:48;;;;;;;;;;;12.50;99.90;;;;;;5047764;28;19923;-81
2022/09/12 06:55:14;;;;;;;;;;;12.60;99.90;;;;;;5032973;28;19921;-80
2022/09/12 06:57:40;;;;;;;;;;;12.50;99.90;;;;;;5057834;28;19916;-81
2022/09/12 07:00:06;;;;;;;;;;;12.60;99.90;;;;;;5053422;28;20332;-80
2022/09/12 07:02:33;;;;;;;;;;;12.70;99.90;;;;;;5049676;28;20300;-80
2022/09/12 07:04:59;;;;;;;;;;;12.80;99.90;;;;;;5053333;28;20414;-80
2022/09/12 07:07:25;;;;;;;;;;;12.90;99.90;;;;;;5055507;28;19921;-80
2022/09/12 07:09:50;;;;;;;;;;;12.90;99.90;;;;;;5062222;28;20617;-81
2022/09/12 07:12:16;;;;;;;;;;;13.00;99.90;;;;;;5049099;28;20400;-80
2022/09/12 07:14:42;;;;;;;;;;;12.90;99.90;;;;;;5050416;28;20062;-80
2022/09/12 07:17:07;;;;;;;;;;;12.90;99.90;;;;;;5050103;28;19917;-81
2022/09/12 07:19:33;;;;;;;;;;;12.90;99.90;;;;;;5048082;28;19975;-81
2022/09/12 07:21:59;;;;;;;;;;;12.90;99.90;;;;;;5052949;28;20451;-81
2022/09/12 07:24:25;;;;;;;;;;;13.00;99.90;;;;;;5052174;28;19912;-81
2022/09/12 07:26:50;;;;;;;;;;;13.10;99.90;;;;;;5035100;28;20324;-81
2022/09/12 07:29:16;;;;;;;;;;;13.20;99.90;;;;;;5051363;28;20293;-81
2022/09/12 07:31:41;;;;;;;;;;;13.30;99.90;;;;;;5040134;28;20000;-80
2022/09/12 07:34:07;;;;;;;;;;;13.30;99.90;;;;;;5047910;28;19963;-80
2022/09/12 07:36:33;;;;;;;;;;;13.30;99.90;;;;;;5046063;28;19920;-80
2022/09/12 07:38:59;;;;;;;;;;;13.20;99.90;;;;;;5052895;28;19921;-80
2022/09/12 07:41:26;;;;;;;;;;;13.30;99.90;;;;;;5049927;28;19921;-80
2022/09/12 07:43:53;;;;;;;;;;;13.30;99.90;;;;;;5042176;28;19966;-80
2022/09/12 07:46:18;;;;;;;;;;;13.10;99.90;;;;;;5058894;28;20388;-82
2022/09/12 07:48:48;;;;;;;;;;;13.30;99.90;;;;;;5054348;28;19939;-82
2022/09/12 07:51:14;;;;;;;;;;;13.40;99.90;;;;;;5050603;28;19949;-82
2022/09/12 07:53:40;;;;;;;;;;;13.60;99.90;;;;;;5046537;28;20389;-82
2022/09/12 07:56:07;;;;;;;;;;;13.80;99.90;;;;;;5049926;28;19964;-82
2022/09/12 07:58:34;;;;;;;;;;;13.90;99.90;;;;;;5051482;28;19928;-81
2022/09/12 08:01:04;;;;;;;;;;;14.00;99.90;;;;;;5049343;28;19927;-81
2022/09/12 08:03:30;;;;;;;;;;;14.20;99.90;;;;;;5057263;28;20403;-82
2022/09/12 08:06:06;;;;;;;;;;;14.30;99.90;;;;;;5048200;28;19948;-82
2022/09/12 08:08:32;;;;;;;;;;;14.40;99.90;;;;;;5052626;28;19919;-82
2022/09/12 08:10:58;;;;;;;;;;;14.50;99.90;;;;;;5051134;28;19981;-82
2022/09/12 08:13:25;;;;;;;;;;;14.60;99.90;;;;;;5048868;28;19953;-82
2022/09/12 08:15:50;;;;;;;;;;;14.70;99.90;;;;;;5050697;28;19921;-82
2022/09/12 08:18:16;;;;;;;;;;;14.80;99.90;;;;;;5049965;28;20359;-81
2022/09/12 08:20:42;;;;;;;;;;;14.80;99.90;;;;;;5053044;28;19924;-82
2022/09/12 08:23:07;;;;;;;;;;;14.90;99.90;;;;;;5052889;28;20463;-83
2022/09/12 08:25:33;;;;;;;;;;;15.00;99.90;;;;;;5057315;28;20315;-83
2022/09/12 08:28:00;;;;;;;;;;;15.20;99.90;;;;;;5047980;28;19917;-81
2022/09/12 08:30:26;;;;;;;;;;;15.40;99.90;;;;;;5042990;28;19927;-80
2022/09/12 08:32:52;;;;;;;;;;;15.60;99.90;;;;;;5043920;28;19954;-81
2022/09/12 08:35:17;;;;;;;;;;;15.80;99.90;;;;;;5039270;28;19948;-82
2022/09/12 08:37:43;;;;;;;;;;;16.00;99.90;;;;;;5054892;28;19967;-80
2022/09/12 08:40:14;;;;;;;;;;;16.20;99.90;;;;;;5025184;28;19927;-79
2022/09/12 08:42:59;;;;;;;;;;;16.40;99.90;;;;;;5052001;28;19936;-78
2022/09/12 08:45:33;;;;;;;;;;;16.60;99.90;;;;;;5031246;28;20024;-81
2022/09/12 08:48:01;;;;;;;;;;;16.80;99.90;;;;;;5045424;28;19913;-82
2022/09/12 08:50:27;;;;;;;;;;;16.90;99.90;;;;;;5066975;28;19929;-82
2022/09/12 08:52:57;;;;;;;;;;;16.90;99.90;;;;;;5048455;28;19917;-82
2022/09/12 08:55:31;;;;;;;;;;;16.90;99.90;;;;;;5044486;28;19927;-82
2022/09/12 08:57:59;;;;;;;;;;;16.80;99.90;;;;;;5047473;28;20372;-82
2022/09/12 09:00:33;;;;;;;;;;;16.80;99.90;;;;;;5050501;28;19917;-80
2022/09/12 09:03:22;;;;;;;;;;;16.70;99.90;;;;;;5047410;28;19912;-82
2022/09/12 09:05:58;;;;;;;;;;;16.60;99.90;;;;;;5054170;28;19947;-82
2022/09/12 09:08:34;;;;;;;;;;;16.50;99.90;;;;;;5045360;28;20332;-82
2022/09/12 09:11:29;;;;;;;;;;;16.40;99.90;;;;;;5053280;28;19920;-81
2022/09/12 09:16:41;;;;;;;;;;;16.40;99.90;;;;;;5043663;28;19914;-82
2022/09/12 09:19:20;;;;;;;;;;;16.50;99.90;;;;;;5020392;28;19952;-80
2022/09/12 09:21:49;;;;;;;;;;;16.50;99.90;;;;;;5046919;28;19913;-81
2022/09/12 09:24:17;;;;;;;;;;;16.60;99.90;;;;;;5050933;28;19913;-81
2022/09/12 09:27:04;;;;;;;;;;;16.70;99.90;;;;;;5050328;28;19966;-81
2022/09/12 09:29:36;;;;;;;;;;;16.70;99.90;;;;;;5035371;28;19913;-82
2022/09/12 09:32:03;;;;;;;;;;;16.80;99.90;;;;;;5063718;28;20396;-81
2022/09/12 09:34:30;;;;;;;;;;;16.80;99.90;;;;;;5047469;28;19916;-82
2022/09/12 09:37:15;;;;;;;;;;;16.90;99.90;;;;;;5034409;28;20389;-80
2022/09/12 09:39:41;;;;;;;;;;;16.90;99.90;;;;;;5049778;28;20331;-82
2022/09/12 09:42:20;;;;;;;;;;;16.90;99.90;;;;;;5051999;28;19970;-81
2022/09/12 09:44:47;;;;;;;;;;;17.00;99.90;;;;;;5050776;28;19947;-80
2022/09/12 09:47:14;;;;;;;;;;;17.00;99.90;;;;;;5040894;28;19976;-81
2022/09/12 09:49:39;;;;;;;;;;;17.00;99.90;;;;;;5051021;28;19970;-81
2022/09/12 09:52:07;;;;;;;;;;;17.10;99.90;;;;;;5051050;28;19909;-81
2022/09/12 09:54:35;;;;;;;;;;;17.20;99.90;;;;;;5035635;28;19921;-78
2022/09/12 09:57:02;;;;;;;;;;;17.30;99.90;;;;;;5050196;28;19917;-79
2022/09/12 09:59:28;;;;;;;;;;;17.40;99.90;;;;;;5048559;28;19939;-79
2022/09/12 10:01:56;;;;;;;;;;;17.50;99.90;;;;;;5049870;28;19917;-79
2022/09/12 10:04:26;;;;;;;;;;;17.60;99.90;;;;;;5044356;28;20042;-80
2022/09/12 10:06:55;;;;;;;;;;;17.70;99.90;;;;;;5050392;28;20030;-78
2022/09/12 10:09:22;;;;;;;;;;;17.80;99.90;;;;;;5039826;28;19967;-79
2022/09/12 10:11:48;;;;;;;;;;;17.90;99.90;;;;;;5049916;28;19991;-80
2022/09/12 10:14:33;;;;;;;;;;;18.00;99.90;;;;;;5047334;28;19913;-80
2022/09/12 10:17:00;;;;;;;;;;;18.10;99.90;;;;;;5026715;28;20471;-79
2022/09/12 10:19:33;;;;;;;;;;;18.10;99.90;;;;;;5050525;28;19999;-79
2022/09/12 10:21:59;;;;;;;;;;;18.20;99.90;;;;;;5050177;28;19923;-79
2022/09/12 10:24:33;;;;;;;;;;;18.20;99.90;;;;;;5049104;28;19995;-79
2022/09/12 10:27:14;;;;;;;;;;;18.20;99.90;;;;;;5029855;28;20004;-79
2022/09/12 10:29:59;;;;;;;;;;;18.30;99.90;;;;;;5035431;28;20470;-80
2022/09/12 10:32:25;;;;;;;;;;;18.30;99.90;;;;;;5049763;28;20484;-79
2022/09/12 10:34:53;;;;;;;;;;;18.40;99.90;;;;;;5049182;28;19956;-79
2022/09/12 10:37:18;;;;;;;;;;;18.40;99.90;;;;;;5048992;28;19917;-78
2022/09/12 10:39:50;;;;;;;;;;;18.40;99.90;;;;;;5050675;28;19923;-79
2022/09/12 10:42:35;;;;;;;;;;;18.40;99.90;;;;;;5034562;28;19940;-78
2022/09/12 10:45:01;;;;;;;;;;;18.50;99.90;;;;;;5045890;28;19916;-79
2022/09/12 10:47:29;;;;;;;;;;;18.50;99.90;;;;;;5049361;28;20048;-79
2022/09/12 10:50:15;;;;;;;;;;;18.60;99.90;;;;;;5049157;28;19916;-80
2022/09/12 10:52:40;;;;;;;;;;;18.60;99.90;;;;;;5044936;28;20376;-80
2022/09/12 10:55:12;;;;;;;;;;;18.60;99.90;;;;;;5049433;28;19943;-79
2022/09/12 10:57:44;;;;;;;;;;;18.60;99.90;;;;;;5047413;28;19992;-80
2022/09/12 11:00:16;;;;;;;;;;;18.70;99.90;;;;;;5035529;28;19924;-80
2022/09/12 11:02:42;;;;;;;;;;;18.70;99.90;;;;;;5030732;28;19913;-81
2022/09/12 11:05:12;;;;;;;;;;;18.60;99.90;;;;;;5063723;28;19928;-81
2022/09/12 11:07:38;;;;;;;;;;;18.50;99.90;;;;;;5037253;28;19921;-80
2022/09/12 11:10:16;;;;;;;;;;;18.50;99.90;;;;;;5048875;28;19962;-80
2022/09/12 11:12:53;;;;;;;;;;;18.40;99.90;;;;;;5051231;28;19956;-80
2022/09/12 11:15:30;;;;;;;;;;;18.40;99.90;;;;;;5039137;28;19913;-80
2022/09/12 11:17:59;;;;;;;;;;;18.40;99.90;;;;;;5043661;28;20363;-80
2022/09/12 11:20:28;;;;;;;;;;;18.40;99.90;;;;;;5042473;28;19917;-79
2022/09/12 11:23:12;;;;;;;;;;;18.50;99.90;;;;;;5045776;28;19913;-80
2022/09/12 11:25:53;;;;;;;;;;;18.60;99.90;;;;;;5043457;28;19913;-79
2022/09/12 11:28:24;;;;;;;;;;;18.70;99.90;;;;;;5048169;28;19992;-79
2022/09/12 11:31:16;;;;;;;;;;;18.90;99.90;;;;;;5054800;28;19997;-79
2022/09/12 11:33:48;;;;;;;;;;;19.00;99.90;;;;;;5058185;28;19935;-79
2022/09/12 11:36:35;;;;;;;;;;;19.20;99.90;;;;;;5052742;28;19913;-80
2022/09/12 11:39:14;;;;;;;;;;;19.20;99.90;;;;;;5046752;28;20012;-80
2022/09/12 11:41:41;;;;;;;;;;;19.40;99.90;;;;;;5050087;28;19913;-80
2022/09/12 11:44:10;;;;;;;;;;;19.40;99.90;;;;;;5029668;28;19915;-80
2022/09/12 11:46:36;;;;;;;;;;;19.30;99.90;;;;;;5054390;28;19920;-80
2022/09/12 11:49:15;;;;;;;;;;;19.30;99.90;;;;;;5046490;28;19939;-79
2022/09/12 11:51:59;;;;;;;;;;;19.30;99.90;;;;;;5047619;28;20350;-80
2022/09/12 11:54:29;;;;;;;;;;;19.30;99.90;;;;;;5056859;28;19939;-80
2022/09/12 11:57:01;;;;;;;;;;;19.40;99.90;;;;;;5049741;28;19921;-80
2022/09/12 11:59:31;;;;;;;;;;;19.50;99.90;;;;;;5039875;28;19917;-80
2022/09/12 12:01:58;;;;;;;;;;;19.50;99.90;;;;;;5049253;28;19979;-80
2022/09/12 12:04:28;;;;;;;;;;;19.40;99.90;;;;;;5047732;28;19948;-79
2022/09/12 12:07:00;;;;;;;;;;;19.40;99.90;;;;;;5056959;28;20024;-80
2022/09/12 12:09:26;;;;;;;;;;;19.30;99.90;;;;;;5040200;28;20007;-80
2022/09/12 12:11:54;;;;;;;;;;;19.30;99.90;;;;;;5049323;28;19952;-80
2022/09/12 12:14:32;;;;;;;;;;;19.30;99.90;;;;;;5040707;28;19960;-80
2022/09/12 12:16:58;;;;;;;;;;;19.30;99.90;;;;;;5049884;28;19913;-80
2022/09/12 12:19:32;;;;;;;;;;;19.30;99.90;;;;;;5024120;28;20373;-80
2022/09/12 12:22:07;;;;;;;;;;;19.30;99.90;;;;;;5054252;28;19913;-80
2022/09/12 12:24:33;;;;;;;;;;;19.40;99.90;;;;;;5049989;28;19912;-79
2022/09/12 12:26:58;;;;;;;;;;;19.50;99.90;;;;;;5058151;28;20042;-80
2022/09/12 12:29:30;;;;;;;;;;;19.50;99.90;;;;;;5055177;28;20283;-80
2022/09/12 12:32:02;;;;;;;;;;;19.60;99.90;;;;;;5058532;28;20003;-80
2022/09/12 12:34:37;;;;;;;;;;;19.70;99.90;;;;;;5052450;28;19912;-80
2022/09/12 12:37:18;;;;;;;;;;;19.80;99.90;;;;;;5052943;28;20394;-80
2022/09/12 12:39:54;;;;;;;;;;;19.80;99.90;;;;;;5053191;28;19921;-80
2022/09/12 12:42:35;;;;;;;;;;;19.70;99.90;;;;;;5048575;28;19912;-79
2022/09/12 12:45:00;;;;;;;;;;;19.60;99.90;;;;;;5045917;28;19913;-80
2022/09/12 12:47:32;;;;;;;;;;;19.70;99.90;;;;;;5039051;28;19920;-80
2022/09/12 12:50:00;;;;;;;;;;;19.60;99.90;;;;;;5052189;28;19912;-80
2022/09/12 12:52:28;;;;;;;;;;;19.60;99.90;;;;;;5046980;28;19913;-80
2022/09/12 12:54:56;;;;;;;;;;;19.60;99.90;;;;;;5050258;28;19943;-80
2022/09/12 12:57:28;;;;;;;;;;;19.60;99.90;;;;;;5055482;28;19968;-79
2022/09/12 12:59:56;;;;;;;;;;;19.70;99.90;;;;;;5055698;28;19931;-79
2022/09/12 13:02:32;;;;;;;;;;;19.70;99.90;;;;;;5063208;28;20292;-79
2022/09/12 13:05:00;;;;;;;;;;;19.70;99.90;;;;;;5052417;28;20505;-79
2022/09/12 13:07:33;;;;;;;;;;;19.80;99.90;;;;;;5051331;28;20017;-80
2022/09/12 13:10:00;;;;;;;;;;;19.80;99.90;;;;;;5063253;28;19917;-79
2022/09/12 13:12:27;;;;;;;;;;;19.90;99.90;;;;;;5061505;28;20344;-79
2022/09/12 13:14:54;;;;;;;;;;;19.90;99.90;;;;;;5056251;28;19921;-79
2022/09/12 13:17:24;;;;;;;;;;;19.90;99.90;;;;;;5069232;28;19966;-79
2022/09/12 13:19:51;;;;;;;;;;;20.00;99.90;;;;;;5053285;28;19917;-79
2022/09/12 13:22:20;;;;;;;;;;;20.00;99.90;;;;;;5054516;28;20563;-79
2022/09/12 13:24:51;;;;;;;;;;;20.00;99.90;;;;;;5072098;28;19948;-79
2022/09/12 13:27:21;;;;;;;;;;;20.00;99.90;;;;;;5055241;28;19917;-79
2022/09/12 13:29:47;;;;;;;;;;;20.00;99.90;;;;;;5071638;28;20484;-79
2022/09/12 13:32:13;;;;;;;;;;;20.00;99.90;;;;;;5063752;28;19982;-79
2022/09/12 13:34:58;;;;;;;;;;;20.10;99.90;;;;;;5071513;28;20512;-79
2022/09/12 13:38:02;;;;;;;;;;;20.00;99.90;;;;;;5054245;28;19936;-79
2022/09/12 13:40:55;;;;;;;;;;;20.10;99.90;;;;;;5049424;28;20377;-79
2022/09/12 13:43:27;;;;;;;;;;;20.10;99.90;;;;;;5047000;28;19962;-78
2022/09/12 13:45:53;;;;;;;;;;;20.20;99.90;;;;;;5036821;28;19923;-78
2022/09/12 13:48:20;;;;;;;;;;;20.20;99.90;;;;;;5051934;28;20011;-78
2022/09/12 13:50:52;;;;;;;;;;;20.30;99.90;;;;;;5044922;28;19917;-78
2022/09/12 13:53:21;;;;;;;;;;;20.40;99.90;;;;;;5052079;28;19916;-79
2022/09/12 13:55:52;;;;;;;;;;;20.40;99.90;;;;;;5039334;28;19921;-78
2022/09/12 13:58:25;;;;;;;;;;;20.50;99.90;;;;;;5050143;28;19917;-78
2022/09/12 14:01:01;;;;;;;;;;;20.50;99.90;;;;;;5038474;28;19928;-78
2022/09/12 14:06:17;;;;;;;;;;;20.50;99.90;;;;;;5050471;28;20327;-78
2022/09/12 14:08:44;;;;;;;;;;;20.60;99.90;;;;;;5052092;28;20371;-78
2022/09/12 14:11:10;;;;;;;;;;;20.50;99.90;;;;;;5049353;28;19913;-79
2022/09/12 14:13:37;;;;;;;;;;;20.50;99.90;;;;;;5041925;28;19923;-79
2022/09/12 14:16:06;;;;;;;;;;;20.40;99.90;;;;;;5057059;28;19913;-79
2022/09/12 14:18:35;;;;;;;;;;;20.30;99.90;;;;;;5051987;28;19913;-79
2022/09/12 14:21:08;;;;;;;;;;;20.30;99.90;;;;;;5036058;28;19912;-79
2022/09/12 14:23:36;;;;;;;;;;;20.30;99.90;;;;;;5045316;28;19913;-79
2022/09/12 14:26:08;;;;;;;;;;;20.20;99.90;;;;;;5050926;28;20077;-79
2022/09/12 14:28:34;;;;;;;;;;;20.10;99.90;;;;;;5042961;28;20288;-78
2022/09/12 14:31:04;;;;;;;;;;;20.10;99.90;;;;;;5050774;28;19924;-79
2022/09/12 14:33:45;;;;;;;;;;;20.10;99.90;;;;;;5042843;28;19920;-79
2022/09/12 14:36:17;;;;;;;;;;;20.10;99.90;;;;;;5050831;28;20347;-80